Time;durP1;ratioP1;P1;durP2;ratioP2;P2;SDS_P1;SDS_P2;PMS_P1;PMS_P2;Temp;Humidity;BMP_temperature;BMP_pressure;BME280_temperature;BME280_humidity;BME280_pressure;Samples;Min_cycle;Max_cycle;Signal;HPM_P1;HPM_P2
2024/03/25 00:00:49;;;;;;;2.80;1.50;;;;;;;5.77;71.21;95874.47;4953169;29;20537;-81
2024/03/25 00:03:16;;;;;;;3.53;1.58;;;;;;;5.77;70.36;95865.88;4953218;29;20111;-81
2024/03/25 00:05:43;;;;;;;2.08;1.00;;;;;;;5.77;70.32;95874.47;4953929;29;20055;-81
2024/03/25 00:08:10;;;;;;;2.13;1.23;;;;;;;5.77;70.45;95871.88;4954329;28;20082;-81
2024/03/25 00:10:37;;;;;;;2.88;1.10;;;;;;;5.77;70.45;95863.28;4955504;29;20090;-81
2024/03/25 00:13:05;;;;;;;2.70;1.42;;;;;;;5.75;70.47;95873.81;4954466;29;20055;-81
2024/03/25 00:15:33;;;;;;;2.30;1.27;;;;;;;5.78;70.67;95872.69;4954714;29;20070;-81
2024/03/25 00:18:00;;;;;;;3.58;1.67;;;;;;;5.78;70.71;95865.72;4954437;29;20047;-81
2024/03/25 00:20:26;;;;;;;1.92;1.48;;;;;;;5.78;70.57;95865.72;4953745;29;20085;-81
2024/03/25 00:22:54;;;;;;;3.78;1.75;;;;;;;5.78;70.52;95865.72;4954376;28;20129;-81
2024/03/25 00:25:20;;;;;;;1.77;1.10;;;;;;;5.80;70.24;95873.31;4953645;29;20055;-81
2024/03/25 00:27:47;;;;;;;2.55;1.30;;;;;;;5.80;69.86;95867.34;4953767;29;20055;-81
2024/03/25 00:30:14;;;;;;;3.80;1.17;;;;;;;5.80;70.51;95873.31;4953789;29;20066;-81
2024/03/25 00:32:41;;;;;;;2.65;1.50;;;;;;;5.78;70.70;95860.53;4954433;29;20059;-81
2024/03/25 00:35:08;;;;;;;2.38;1.30;;;;;;;5.77;70.71;95865.88;4954181;29;20057;-81
2024/03/25 00:37:35;;;;;;;3.63;1.45;;;;;;;5.76;70.07;95859.91;4953884;29;20067;-81
2024/03/25 00:40:02;;;;;;;3.63;1.80;;;;;;;5.76;70.76;95857.31;4953125;29;20051;-81
2024/03/25 00:42:28;;;;;;;2.67;1.63;;;;;;;5.77;70.57;95850.34;4953155;28;20467;-81
2024/03/25 00:44:55;;;;;;;1.52;1.42;;;;;;;5.76;70.83;95848.75;4952883;29;20047;-81
2024/03/25 00:47:22;;;;;;;2.88;1.40;;;;;;;5.73;70.11;95846.50;4953470;29;20055;-81
2024/03/25 00:49:49;;;;;;;2.88;1.77;;;;;;;5.71;70.03;95851.06;4953940;28;20085;-80
2024/03/25 00:52:15;;;;;;;2.85;1.35;;;;;;;5.69;69.80;95853.78;4956643;29;20078;-81
2024/03/25 00:54:43;;;;;;;2.70;1.73;;;;;;;5.69;70.20;95856.38;4962357;28;20058;-81
2024/03/25 00:57:09;;;;;;;4.07;1.88;;;;;;;5.69;69.91;95850.41;4962498;29;20035;-81
2024/03/25 00:59:36;;;;;;;3.47;1.48;;;;;;;5.68;70.22;95839.22;4961219;28;20051;-81
2024/03/25 01:02:02;;;;;;;5.28;2.00;;;;;;;5.71;70.35;95856.22;4955055;29;20065;-81
2024/03/25 01:04:30;;;;;;;3.35;1.70;;;;;;;5.72;70.74;95845.69;4952530;28;20110;-81
2024/03/25 01:06:56;;;;;;;2.55;1.67;;;;;;;5.71;70.78;95851.84;4951297;29;20057;-81
2024/03/25 01:09:25;;;;;;;3.00;1.40;;;;;;;5.70;70.23;95852.81;4950926;29;20063;-81
2024/03/25 01:11:51;;;;;;;3.72;1.27;;;;;;;5.69;70.68;95856.38;4951784;29;20059;-81
2024/03/25 01:14:18;;;;;;;4.50;1.98;;;;;;;5.69;70.18;95860.75;4952179;29;20051;-81
2024/03/25 01:16:44;;;;;;;2.15;1.42;;;;;;;5.67;69.91;95847.97;4953012;28;20082;-81
2024/03/25 01:19:10;;;;;;;2.53;1.60;;;;;;;5.66;70.03;95843.75;4952054;29;20051;-81
2024/03/25 01:21:38;;;;;;;3.60;1.80;;;;;;;5.65;70.22;95849.13;4951210;29;20055;-81
2024/03/25 01:24:05;;;;;;;3.22;1.58;;;;;;;5.66;70.41;95845.56;4951689;29;20055;-81
2024/03/25 01:26:31;;;;;;;2.22;1.98;;;;;;;5.64;70.61;95840.56;4951344;29;20090;-81
2024/03/25 01:28:58;;;;;;;4.57;1.98;;;;;;;5.65;71.10;95844.75;4951242;29;20059;-81
2024/03/25 01:31:24;;;;;;;4.10;2.15;;;;;;;5.67;70.63;95847.97;4951374;29;20513;-81
2024/03/25 01:33:51;;;;;;;3.15;1.88;;;;;;;5.67;70.32;95842.81;4951526;29;20063;-81
2024/03/25 01:36:17;;;;;;;5.30;2.00;;;;;;;5.67;70.28;95845.41;4953039;29;20058;-81
2024/03/25 01:38:46;;;;;;;7.05;2.10;;;;;;;5.68;70.31;95849.59;4951356;29;20101;-81
2024/03/25 01:41:15;;;;;;;3.05;1.58;;;;;;;5.68;70.29;95844.41;4950901;29;20059;-81
2024/03/25 01:43:42;;;;;;;6.53;2.13;;;;;;;5.67;70.21;95837.63;4951020;29;20055;-81
2024/03/25 01:46:09;;;;;;;4.53;1.48;;;;;;;5.65;70.14;95849.94;4951433;29;20051;-81
2024/03/25 01:48:37;;;;;;;4.45;2.35;;;;;;;5.66;70.13;95848.94;4952376;29;20055;-81
2024/03/25 01:51:03;;;;;;;3.67;2.20;;;;;;;5.67;71.25;95845.41;4960503;28;20045;-80
2024/03/25 01:53:31;;;;;;;2.28;1.80;;;;;;;5.68;70.89;95844.41;4962386;28;20035;-80
2024/03/25 01:55:59;;;;;;;3.92;1.85;;;;;;;5.69;70.07;95840.84;4954337;28;20136;-81
2024/03/25 01:58:26;;;;;;;4.63;1.55;;;;;;;5.68;71.07;95849.59;4950346;29;20047;-81
2024/03/25 02:00:54;;;;;;;3.47;1.65;;;;;;;5.67;70.22;95850.56;4949868;29;20122;-81
2024/03/25 02:03:22;;;;;;;3.50;1.85;;;;;;;5.69;71.07;95851.22;4952504;29;20063;-81
2024/03/25 02:05:53;;;;;;;4.18;1.65;;;;;;;5.71;70.68;95843.28;4951253;29;20051;-81
2024/03/25 02:08:20;;;;;;;3.40;2.00;;;;;;;5.72;69.71;95850.06;4950933;29;20059;-81
2024/03/25 02:10:46;;;;;;;2.05;1.70;;;;;;;5.71;69.64;95851.84;4951266;29;20057;-83
2024/03/25 02:13:24;;;;;;;3.13;1.70;;;;;;;5.71;70.77;95848.47;4950347;29;20070;-80
2024/03/25 02:15:51;;;;;;;6.47;2.20;;;;;;;5.70;70.23;95852.81;4950527;29;20079;-81
2024/03/25 02:18:18;;;;;;;6.13;1.98;;;;;;;5.71;70.06;95853.63;4950773;29;20062;-81
2024/03/25 02:20:45;;;;;;;3.00;2.00;;;;;;;5.71;69.78;95853.63;4952357;29;20124;-81
2024/03/25 02:23:12;;;;;;;6.43;2.15;;;;;;;5.72;70.33;95856.03;4952465;29;20062;-82
2024/03/25 02:25:41;;;;;;;2.85;1.75;;;;;;;5.74;70.37;95848.91;4950362;29;20051;-81
2024/03/25 02:28:10;;;;;;;3.22;1.88;;;;;;;5.77;71.70;95853.75;4948572;29;20055;-80
2024/03/25 02:30:36;;;;;;;4.43;2.03;;;;;;;5.81;72.06;95848.22;4951072;29;20504;-81
2024/03/25 02:33:03;;;;;;;5.35;2.38;;;;;;;5.83;71.35;95851.47;4951206;29;20059;-80
2024/03/25 02:35:30;;;;;;;3.58;2.00;;;;;;;5.83;70.88;95851.47;4951103;29;20055;-81
2024/03/25 02:37:57;;;;;;;5.00;2.63;;;;;;;5.83;70.61;95846.28;4950861;29;20063;-81
2024/03/25 02:40:25;;;;;;;4.00;2.00;;;;;;;5.86;71.98;95843.34;4950070;28;20518;-80
2024/03/25 02:42:52;;;;;;;4.57;2.05;;;;;;;5.89;71.39;95840.44;4950808;29;20061;-81
2024/03/25 02:45:19;;;;;;;5.07;2.03;;;;;;;5.88;70.95;95844.81;4950553;29;20054;-80
2024/03/25 02:47:46;;;;;;;3.42;1.90;;;;;;;5.88;71.31;95849.16;4950970;29;20078;-81
2024/03/25 02:50:12;;;;;;;4.20;2.00;;;;;;;5.87;71.40;95852.75;4951249;29;20050;-81
2024/03/25 02:52:39;;;;;;;2.97;1.83;;;;;;;5.84;70.98;95853.88;4952360;28;20051;-81
2024/03/25 02:55:06;;;;;;;6.70;2.15;;;;;;;5.85;70.98;95859.88;4952308;29;20122;-81
2024/03/25 02:57:33;;;;;;;3.85;1.90;;;;;;;5.87;71.34;95852.75;4952886;29;20053;-80
2024/03/25 02:59:59;;;;;;;4.30;2.17;;;;;;;5.89;70.71;95861.13;4952814;29;20058;-81
2024/03/25 03:02:27;;;;;;;5.00;1.80;;;;;;;5.90;71.09;95858.38;4952993;29;20059;-81
2024/03/25 03:04:53;;;;;;;4.32;2.20;;;;;;;5.90;70.41;95862.72;4952955;29;20047;-81
2024/03/25 03:07:21;;;;;;;3.78;2.75;;;;;;;5.89;71.09;95856.75;4954177;28;20055;-81
2024/03/25 03:09:46;;;;;;;5.13;2.33;;;;;;;5.88;70.56;95856.91;4956468;29;20055;-81
2024/03/25 03:12:13;;;;;;;5.10;2.03;;;;;;;5.86;70.33;95851.09;4957040;29;20080;-81
2024/03/25 03:14:39;;;;;;;6.32;2.13;;;;;;;5.85;70.63;95859.88;4956070;29;20051;-82
2024/03/25 03:17:06;;;;;;;6.03;2.60;;;;;;;5.86;71.05;95861.47;4956217;29;20389;-81
2024/03/25 03:19:34;;;;;;;4.80;2.22;;;;;;;5.86;70.79;95864.06;4956859;29;20051;-80
2024/03/25 03:22:00;;;;;;;3.78;2.47;;;;;;;5.86;70.50;95858.88;4954287;28;20047;-81
2024/03/25 03:24:26;;;;;;;3.13;2.10;;;;;;;5.84;70.03;95863.41;4953267;29;20051;-80
2024/03/25 03:26:53;;;;;;;2.80;2.20;;;;;;;5.84;70.42;95856.47;4953658;29;20094;-80
2024/03/25 03:29:19;;;;;;;6.30;2.20;;;;;;;5.82;70.47;95861.00;4954464;29;20050;-81
2024/03/25 03:31:46;;;;;;;2.60;2.00;;;;;;;5.83;70.18;95856.63;4955884;29;20095;-81
2024/03/25 03:34:12;;;;;;;3.85;2.60;;;;;;;5.83;70.77;95856.63;4954780;29;20112;-81
2024/03/25 03:36:41;;;;;;;5.68;2.35;;;;;;;5.85;70.46;95865.03;4955318;29;20054;-81
2024/03/25 03:39:08;;;;;;;4.80;2.40;;;;;;;5.86;70.49;95861.47;4954508;29;20110;-81
2024/03/25 03:41:36;;;;;;;3.63;2.33;;;;;;;5.87;69.94;95869.06;4955452;29;20051;-81
2024/03/25 03:44:02;;;;;;;4.25;1.92;;;;;;;5.88;70.60;95862.09;4954766;29;20061;-81
2024/03/25 03:46:29;;;;;;;4.40;2.30;;;;;;;5.89;70.78;95868.91;4954989;29;20059;-80
2024/03/25 03:48:55;;;;;;;2.65;2.03;;;;;;;5.90;70.57;95862.72;4954904;28;20047;-81
2024/03/25 03:51:22;;;;;;;8.05;2.50;;;;;;;5.91;70.04;95859.19;4955097;29;20092;-81
2024/03/25 03:53:50;;;;;;;6.68;2.17;;;;;;;5.90;69.82;95858.38;4955075;29;20547;-80
2024/03/25 03:56:17;;;;;;;3.85;2.40;;;;;;;5.91;70.64;95861.78;4954329;29;20055;-81
2024/03/25 03:58:43;;;;;;;4.90;2.58;;;;;;;5.93;70.46;95857.25;4955293;29;20055;-81
2024/03/25 04:01:15;;;;;;;5.13;2.30;;;;;;;5.96;71.87;95867.28;4954583;29;20093;-81
2024/03/25 04:03:41;;;;;;;3.25;2.20;;;;;;;5.98;72.16;95867.91;4954727;28;20043;-81
2024/03/25 04:06:10;;;;;;;4.70;2.80;;;;;;;5.99;71.31;95869.50;4954721;29;20058;-81
2024/03/25 04:08:36;;;;;;;2.95;2.30;;;;;;;6.01;71.07;95866.75;4955199;29;20051;-80
2024/03/25 04:11:05;;;;;;;5.45;2.90;;;;;;;6.01;71.20;95870.13;4954506;29;20063;-81
2024/03/25 04:13:32;;;;;;;6.25;3.20;;;;;;;6.00;71.36;95873.72;4955691;29;20051;-81
2024/03/25 04:24:06;;;;;;;4.63;2.60;;;;;;;5.99;70.98;95869.50;5426831;23;20063;-81
2024/03/25 04:26:33;;;;;;;9.02;3.05;;;;;;;6.01;70.23;95871.94;4902411;29;20067;-81
2024/03/25 04:29:00;;;;;;;6.00;2.58;;;;;;;6.01;70.12;95875.31;4902609;29;20052;-81
2024/03/25 04:31:26;;;;;;;3.25;2.60;;;;;;;6.01;70.37;95877.91;4903211;29;20060;-81
2024/03/25 04:33:53;;;;;;;4.22;2.42;;;;;;;6.02;71.24;95882.13;4902824;29;20501;-82
2024/03/25 04:36:19;;;;;;;4.40;2.63;;;;;;;6.04;71.07;95876.78;4902450;29;20060;-81
